Vandenberg Range, California
Current Conditions -  °F | °C
As of 5:55 PM on Monday 22 Dec 2014 (Local Time) from KVBG Reporting Station
Clear Clear  
Wind Chill: 61°   Ceiling: Unl
Heat Index: 61°   Visibility: 10mi
Dew Point: 51°   Wind: 10mph
Humidity: 70%   Direction: 340°NNW
Pressure: 30.07"   Gusts: NA
Location:  34.75°N, 120.56°W
Report Text: KVBG 230155Z AUTO 34009KT 10SM CLR 16/11 A3007 RMK AO2 SLP174 T01610106 TSNO $
Loading
Personal Weather Stations






























Interactive Weather Map New forecast layout! Learn more

10-Day Weather Forecast

Advertisements
Track Severe Weather on mobile